Time;durP1;ratioP1;P1;durP2;ratioP2;P2;SDS_P1;SDS_P2;PMS_P1;PMS_P2;Temp;Humidity;BMP_temperature;BMP_pressure;BME280_temperature;BME280_humidity;BME280_pressure;Samples;Min_cycle;Max_cycle;Signal;HPM_P1;HPM_P2
2021/10/20 00:02:41;;;;;;;11.60;9.50;;;;;;;9.84;70.92;99612.59;477140;1190;160891;-69
2021/10/20 00:12:48;;;;;;;11.80;9.20;;;;;;;9.93;70.87;99596.67;471156;1190;143836;-69
2021/10/20 00:22:55;;;;;;;12.80;10.00;;;;;;;9.95;70.84;99584.42;477920;1190;141124;-70
2021/10/20 00:33:06;;;;;;;10.60;9.50;;;;;;;9.96;70.90;99572.48;471986;1190;141475;-71
2021/10/20 00:43:12;;;;;;;10.10;9.10;;;;;;;9.97;70.96;99568.55;469154;1190;141546;-69
2021/10/20 00:53:17;;;;;;;13.20;10.20;;;;;;;9.97;71.09;99546.70;477888;1190;141343;-70
2021/10/20 01:03:23;;;;;;;11.70;10.50;;;;;;;10.00;71.23;99529.07;477839;1190;141987;-69
2021/10/20 01:13:30;;;;;;;12.00;9.40;;;;;;;10.06;71.29;99512.25;477877;1190;141380;-69
2021/10/20 01:23:36;;;;;;;10.70;8.90;;;;;;;10.13;71.35;99494.16;477109;1190;144409;-70
2021/10/20 01:33:42;;;;;;;9.80;8.80;;;;;;;10.17;71.61;99475.52;477855;1190;142166;-69
2021/10/20 01:43:50;;;;;;;9.40;8.40;;;;;;;10.20;71.78;99477.42;477943;1189;144964;-69
2021/10/20 01:53:55;;;;;;;11.00;9.90;;;;;;;10.29;71.83;99461.27;466090;1190;142645;-69
2021/10/20 02:04:01;;;;;;;10.80;8.00;;;;;;;10.37;71.73;99460.59;477968;1190;142252;-69
2021/10/20 02:14:10;;;;;;;8.40;7.50;;;;;;;10.47;71.73;99441.77;477887;1190;143526;-69
2021/10/20 02:24:14;;;;;;;;;;;;;;;10.59;71.52;99441.02;477078;1190;140815;-69
2021/10/20 02:34:21;;;;;;;8.00;7.20;;;;;;;10.70;71.37;99432.58;478145;1190;129047;-69
2021/10/20 02:44:27;;;;;;;8.70;6.10;;;;;;;10.82;71.13;99435.65;477022;1190;142138;-69
2021/10/20 02:54:33;;;;;;;7.80;7.00;;;;;;;10.92;71.02;99424.30;477872;1190;141890;-69
2021/10/20 03:04:39;;;;;;;6.60;5.90;;;;;;;10.99;70.92;99410.30;476938;1190;143831;-70
2021/10/20 03:14:45;;;;;;;7.50;5.50;;;;;;;11.07;70.86;99405.42;475392;1190;143629;-69
2021/10/20 03:24:50;;;;;;;7.90;6.60;;;;;;;11.14;70.71;99392.11;478001;1190;141122;-69
2021/10/20 03:34:56;;;;;;;6.80;6.10;;;;;;;11.22;70.70;99381.95;477880;1190;144099;-69
2021/10/20 03:45:02;;;;;;;8.20;6.10;;;;;;;11.29;70.73;99371.31;477036;1190;141910;-69
2021/10/20 03:55:09;;;;;;;8.20;7.40;;;;;;;11.36;70.73;99372.94;477902;1190;141089;-69
2021/10/20 04:05:16;;;;;;;7.80;6.40;;;;;;;11.34;71.50;99376.91;477856;1190;141575;-68
2021/10/20 04:15:25;;;;;;;6.90;6.20;;;;;;;11.16;72.73;99374.61;477902;1190;141836;-69
2021/10/20 04:25:31;;;;;;;7.10;6.40;;;;;;;11.06;73.47;99355.68;477780;1190;141640;-69
2021/10/20 04:35:37;;;;;;;8.50;6.60;;;;;;;11.07;73.67;99345.16;476269;1190;143994;-69
2021/10/20 04:45:42;;;;;;;6.60;6.00;;;;;;;11.11;73.81;99330.19;477828;1190;141651;-70
2021/10/20 04:55:49;;;;;;;8.70;6.30;;;;;;;11.16;73.65;99320.83;477828;1190;141784;-70
2021/10/20 05:05:55;;;;;;;6.60;6.00;;;;;;;11.23;73.58;99312.86;476970;1190;142173;-72
2021/10/20 05:16:01;;;;;;;6.10;5.50;;;;;;;11.30;73.53;99317.42;477829;1190;141849;-70
2021/10/20 05:26:07;;;;;;;6.40;5.80;;;;;;;11.37;73.45;99321.70;477857;1190;141173;-71
2021/10/20 05:36:13;;;;;;;6.20;5.60;;;;;;;11.46;73.44;99321.70;477007;1190;141933;-71
2021/10/20 05:46:19;;;;;;;9.50;7.10;;;;;;;11.57;73.22;99315.31;477816;1190;141363;-65
2021/10/20 05:56:26;;;;;;;10.70;6.80;;;;;;;11.67;73.06;99300.73;476983;1190;142181;-66
2021/10/20 06:06:32;;;;;;;7.10;6.40;;;;;;;11.75;72.98;99306.65;477654;1190;141268;-67
2021/10/20 06:16:41;;;;;;;8.10;6.40;;;;;;;11.87;72.72;99301.05;477881;1190;141669;-71
2021/10/20 06:26:47;;;;;;;6.90;6.20;;;;;;;12.10;72.35;99286.96;473647;1190;145081;-67
2021/10/20 06:36:53;;;;;;;6.80;6.00;;;;;;;12.28;72.09;99276.13;471512;1190;140873;-64
2021/10/20 06:46:59;;;;;;;8.60;7.60;;;;;;;12.56;72.01;99274.74;475357;1189;140393;-67
2021/10/20 06:57:05;;;;;;;9.80;6.50;;;;;;;13.09;71.46;99271.81;460827;1190;10002833;-67
2021/10/20 07:07:13;;;;;;;11.40;6.90;;;;;;;13.72;70.61;99264.14;477787;1189;142486;-66
2021/10/20 07:17:20;;;;;;;8.80;6.50;;;;;;;15.02;69.46;99263.05;474086;1189;142177;-64
2021/10/20 07:27:27;;;;;;;8.20;5.80;;;;;;;16.44;66.98;99254.39;477012;1190;197158;-67
2021/10/20 07:37:33;;;;;;;5.70;5.20;;;;;;;18.19;64.68;99252.33;477742;1189;141931;-67
2021/10/20 07:47:39;;;;;;;7.50;4.50;;;;;;;19.72;61.16;99249.70;477002;1189;141207;-68
2021/10/20 07:57:46;;;;;;;4.80;4.20;;;;;;;20.72;59.07;99247.03;477812;1190;139888;-68
2021/10/20 08:07:52;;;;;;;4.90;4.30;;;;;;;20.54;57.37;99240.12;477378;1184;141276;-67
2021/10/20 08:18:03;;;;;;;5.30;4.50;;;;;;;19.51;57.26;99237.23;477004;1189;141458;-67
2021/10/20 08:28:09;;;;;;;5.50;5.00;;;;;;;18.68;58.07;99221.83;477709;1189;140627;-66
2021/10/20 08:38:15;;;;;;;5.10;4.60;;;;;;;18.76;58.08;99215.77;467990;1190;141009;-64
2021/10/20 08:48:22;;;;;;;6.50;4.20;;;;;;;19.72;57.04;99201.82;472955;1183;140537;-68
2021/10/20 08:58:30;;;;;;;4.10;3.70;;;;;;;20.85;55.59;99194.58;477653;1190;141692;-68
2021/10/20 09:08:43;;;;;;;4.50;4.20;;;;;;;21.26;54.53;99171.21;476954;1189;141386;-67
2021/10/20 09:18:49;;;;;;;4.80;3.70;;;;;;;20.49;54.43;99157.36;477595;1190;141070;-67
2021/10/20 09:28:56;;;;;;;5.40;3.60;;;;;;;19.98;55.04;99157.24;477835;1189;185666;-67
2021/10/20 09:39:11;;;;;;;5.90;4.10;;;;;;;20.01;55.24;99149.08;477009;1190;141306;-67
2021/10/20 09:49:19;;;;;;;5.10;3.70;;;;;;;20.16;55.11;99147.33;477976;1189;140767;-67
2021/10/20 09:59:26;;;;;;;6.40;4.20;;;;;;;20.18;54.86;99132.66;476481;1190;141410;-70
2021/10/20 10:09:32;;;;;;;4.50;3.50;;;;;;;19.97;54.55;99118.80;477413;1190;140841;-66
2021/10/20 10:19:41;;;;;;;4.00;3.50;;;;;;;19.76;54.75;99110.98;477665;1190;142180;-67
2021/10/20 10:29:53;;;;;;;3.70;3.40;;;;;;;19.47;54.90;99094.63;476975;1189;187766;-67
2021/10/20 10:40:28;;;;;;;4.70;4.20;;;;;;;19.45;55.20;99075.15;477960;1183;140813;-67
2021/10/20 10:50:43;;;;;;;3.40;3.10;;;;;;;19.49;54.95;99060.33;477649;1189;140086;-67
2021/10/20 11:00:50;;;;;;;7.30;3.70;;;;;;;19.40;54.97;99048.48;468325;1189;142425;-67
2021/10/20 11:10:57;;;;;;;3.70;3.30;;;;;;;19.49;54.91;99029.77;478342;1189;140009;-67
2021/10/20 11:21:04;;;;;;;4.40;3.40;;;;;;;19.45;54.41;99022.10;477420;1189;140299;-67
2021/10/20 11:31:12;;;;;;;6.10;2.80;;;;;;;19.56;54.41;99009.73;478312;1188;140345;-66
2021/10/20 11:41:21;;;;;;;4.10;2.60;;;;;;;19.66;54.30;98996.71;478178;1189;141343;-64
2021/10/20 11:51:27;;;;;;;3.80;3.40;;;;;;;19.70;54.01;98974.60;478094;1189;141512;-65
2021/10/20 12:01:32;;;;;;;3.40;2.80;;;;;;;19.60;53.79;98956.11;477640;1190;142125;-65
2021/10/20 12:11:38;;;;;;;2.90;2.60;;;;;;;19.57;53.83;98934.47;477427;1189;140645;-65
2021/10/20 12:21:46;;;;;;;2.90;2.50;;;;;;;19.71;53.84;98921.02;477614;1190;140870;-65
2021/10/20 12:31:52;;;;;;;7.30;3.40;;;;;;;20.07;53.22;98910.09;478195;1189;140286;-67
2021/10/20 12:42:02;;;;;;;6.80;2.80;;;;;;;19.93;52.36;98896.35;464869;1190;140350;-65
2021/10/20 12:52:09;;;;;;;2.10;1.90;;;;;;;19.65;52.53;98877.29;474598;1189;141148;-65
2021/10/20 13:02:31;;;;;;;2.40;1.90;;;;;;;19.52;52.84;98843.48;477292;1189;141375;-65
2021/10/20 13:12:39;;;;;;;3.00;2.60;;;;;;;19.37;53.06;98820.60;477797;1189;141594;-65
2021/10/20 13:22:46;;;;;;;5.90;2.90;;;;;;;19.15;53.27;98811.39;477979;1189;140306;-65
2021/10/20 13:32:53;;;;;;;4.10;2.70;;;;;;;18.94;53.63;98811.67;471912;1189;140790;-65
2021/10/20 13:43:00;;;;;;;2.70;2.30;;;;;;;18.76;53.93;98806.20;473186;1189;140694;-63
2021/10/20 13:53:06;;;;;;;3.80;2.70;;;;;;;18.59;54.26;98807.55;472546;1189;141361;-65
2021/10/20 14:03:12;;;;;;;3.40;2.60;;;;;;;18.43;54.77;98790.41;477325;1189;140494;-65
2021/10/20 14:13:18;;;;;;;3.80;3.10;;;;;;;18.34;55.16;98770.42;470858;1189;141176;-65
2021/10/20 14:23:24;;;;;;;6.90;3.50;;;;;;;18.31;55.35;98768.83;475545;1189;141772;-64
2021/10/20 14:33:32;;;;;;;5.00;3.50;;;;;;;18.18;55.36;98756.10;477820;1190;141391;-65
2021/10/20 14:43:40;;;;;;;4.60;3.80;;;;;;;18.02;55.51;98757.55;477915;1190;140207;-66
2021/10/20 14:53:47;;;;;;;6.20;4.90;;;;;;;17.80;55.66;98750.52;476962;1190;142716;-66
2021/10/20 15:03:53;;;;;;;9.10;5.80;;;;;;;17.53;55.95;98728.30;474635;1189;141298;-64
2021/10/20 15:13:59;;;;;;;4.80;4.40;;;;;;;17.25;56.46;98716.50;470283;1189;140041;-65
2021/10/20 15:24:05;;;;;;;5.80;4.90;;;;;;;17.00;56.81;98688.95;477122;1189;141266;-66
2021/10/20 15:34:11;;;;;;;5.60;5.00;;;;;;;16.80;57.29;98675.45;473269;1189;140836;-67
2021/10/20 15:44:17;;;;;;;6.90;4.60;;;;;;;16.60;57.60;98678.66;478032;1190;141087;-66
2021/10/20 15:54:23;;;;;;;10.80;5.50;;;;;;;16.43;58.05;98679.98;477746;1190;140650;-61
2021/10/20 16:04:30;;;;;;;7.10;5.20;;;;;;;16.25;58.39;98674.54;477569;1189;140978;-73
2021/10/20 16:14:37;;;;;;;6.90;5.40;;;;;;;16.06;58.66;98670.66;475972;1190;141758;-67
2021/10/20 16:24:43;;;;;;;9.30;6.60;;;;;;;15.92;58.97;98677.61;477336;1189;139990;-66
2021/10/20 16:34:49;;;;;;;7.70;6.20;;;;;;;15.86;59.11;98685.33;461401;1190;140565;-67
2021/10/20 16:44:56;;;;;;;7.90;5.30;;;;;;;15.78;59.16;98675.13;460683;1190;140016;-70
2021/10/20 16:55:02;;;;;;;6.80;6.00;;;;;;;15.68;59.21;98672.92;477990;1190;140932;-61
2021/10/20 17:05:10;;;;;;;6.60;5.80;;;;;;;15.62;59.05;98670.92;477729;1191;141001;-68
2021/10/20 17:15:20;;;;;;;8.10;6.10;;;;;;;15.55;59.01;98660.87;477053;1190;140796;-66
2021/10/20 17:25:26;;;;;;;6.90;5.90;;;;;;;15.46;58.68;98657.67;477935;1190;152755;-63
2021/10/20 17:35:33;;;;;;;10.90;5.90;;;;;;;15.32;58.50;98646.70;476993;1190;142525;-65
2021/10/20 17:45:39;;;;;;;7.30;5.20;;;;;;;15.13;58.50;98626.54;477735;1190;141804;-63
2021/10/20 17:55:47;;;;;;;7.40;6.50;;;;;;;15.08;58.46;98609.25;461669;1190;10002069;-64
2021/10/20 18:05:53;;;;;;;11.90;6.50;;;;;;;15.06;58.28;98606.95;473301;1190;140741;-71
2021/10/20 18:16:00;;;;;;;8.80;5.70;;;;;;;15.11;58.06;98603.90;463827;1190;141115;-80
2021/10/20 18:26:07;;;;;;;7.20;5.80;;;;;;;15.15;57.84;98587.37;465481;1190;140025;-78
2021/10/20 18:36:25;;;;;;;17.00;7.70;;;;;;;15.20;57.59;98560.27;463887;1190;140517;-83
2021/10/20 18:46:32;;;;;;;5.40;4.90;;;;;;;15.25;57.23;98544.77;477650;1190;141405;-75
2021/10/20 18:56:39;;;;;;;6.10;5.40;;;;;;;15.24;57.04;98549.77;477001;1189;141316;-75
2021/10/20 19:06:46;;;;;;;8.40;5.70;;;;;;;15.02;57.09;98556.50;477839;1190;139847;-75
2021/10/20 19:16:53;;;;;;;6.20;4.90;;;;;;;14.88;57.05;98540.31;466772;1175;145492;-66
2021/10/20 19:26:59;;;;;;;5.40;4.70;;;;;;;14.84;56.89;98536.95;460282;1183;141325;-66
2021/10/20 19:37:08;;;;;;;9.00;4.50;;;;;;;14.74;56.91;98541.14;464913;1189;141501;-66
2021/10/20 19:47:14;;;;;;;6.70;5.20;;;;;;;14.71;56.90;98531.20;474317;1189;141355;-66
2021/10/20 19:57:21;;;;;;;8.00;5.30;;;;;;;14.80;56.71;98528.73;464432;1189;142124;-65
2021/10/20 20:07:28;;;;;;;5.70;5.10;;;;;;;14.87;56.43;98517.69;464742;1174;150584;-64
2021/10/20 20:17:35;;;;;;;10.50;7.50;;;;;;;14.87;56.34;98500.41;476713;1190;142978;-65
2021/10/20 20:27:42;;;;;;;9.50;5.00;;;;;;;14.95;56.15;98497.98;477478;1190;144570;-66
2021/10/20 20:37:49;;;;;;;9.50;6.30;;;;;;;15.02;55.97;98490.55;468945;1190;140540;-64
2021/10/20 20:47:55;;;;;;;8.00;5.20;;;;;;;14.93;55.98;98488.75;476697;1190;141973;-64
2021/10/20 20:58:00;;;;;;;11.30;6.70;;;;;;;14.81;55.91;98494.28;461980;1190;141312;-64
2021/10/20 21:08:07;;;;;;;9.20;5.80;;;;;;;14.64;56.20;98488.65;466090;1190;140647;-63
2021/10/20 21:18:15;;;;;;;9.70;6.20;;;;;;;14.59;56.27;98485.14;465625;1190;141023;-66
2021/10/20 21:28:21;;;;;;;7.40;6.30;;;;;;;14.60;56.28;98488.63;472978;1190;144682;-66
2021/10/20 21:38:26;;;;;;;6.10;5.50;;;;;;;14.65;56.28;98480.90;477065;1184;141445;-66
2021/10/20 21:48:32;;;;;;;8.10;6.30;;;;;;;14.62;56.24;98456.50;478100;1189;140397;-67
2021/10/20 21:58:38;;;;;;;7.20;6.40;;;;;;;14.63;56.25;98451.48;461759;1189;140760;-66
2021/10/20 22:09:05;;;;;;;16.40;6.60;;;;;;;14.58;56.19;98449.08;460369;1174;140784;-66
2021/10/20 22:19:11;;;;;;;7.60;6.20;;;;;;;14.47;56.26;98440.50;473979;1190;195023;-67
2021/10/20 22:29:17;;;;;;;6.20;5.40;;;;;;;14.38;56.32;98432.05;473996;1190;141263;-68
2021/10/20 22:39:25;;;;;;;6.60;5.40;;;;;;;14.27;56.45;98428.77;462350;1190;141478;-66
2021/10/20 22:49:31;;;;;;;7.20;6.10;;;;;;;14.10;56.55;98430.23;477596;1190;140974;-67
2021/10/20 22:59:37;;;;;;;5.90;5.40;;;;;;;13.86;56.95;98433.25;463020;1190;141211;-67
2021/10/20 23:09:43;;;;;;;7.40;5.70;;;;;;;13.72;57.35;98422.60;477557;1189;140334;-67
2021/10/20 23:19:50;;;;;;;7.00;6.40;;;;;;;13.68;57.48;98412.40;469459;1189;140385;-65
2021/10/20 23:29:56;;;;;;;7.30;5.90;;;;;;;13.49;57.81;98401.86;471840;1189;140640;-66
2021/10/20 23:40:02;;;;;;;7.80;6.70;;;;;;;13.32;58.22;98373.91;478300;1189;139900;-66
2021/10/20 23:50:10;;;;;;;7.60;6.80;;;;;;;13.20;58.58;98363.79;477756;1190;140710;-67
